createdAt,value
2019-02-07T00:00:51.941Z,0.00
2019-02-07T00:01:51.923Z,0.00
2019-02-07T00:02:51.933Z,0.00
2019-02-07T00:03:51.904Z,0.00
2019-02-07T00:04:51.892Z,0.00
2019-02-07T00:05:51.889Z,0.00
2019-02-07T00:06:54.550Z,0.00
2019-02-07T00:07:51.990Z,0.00
2019-02-07T00:08:51.857Z,0.00
2019-02-07T00:09:51.840Z,0.00
2019-02-07T00:10:51.827Z,0.00
2019-02-07T00:11:51.820Z,0.00
2019-02-07T00:12:51.828Z,0.00
2019-02-07T00:13:51.793Z,0.00
2019-02-07T00:14:51.785Z,0.00
2019-02-07T00:15:51.774Z,0.00
2019-02-07T00:16:51.762Z,0.00
2019-02-07T00:17:51.774Z,0.00
2019-02-07T00:18:51.764Z,0.00
2019-02-07T00:19:51.734Z,0.00
2019-02-07T00:20:51.727Z,0.00
2019-02-07T00:21:51.706Z,0.00
2019-02-07T00:22:51.700Z,0.00
2019-02-07T00:23:51.705Z,0.00
2019-02-07T00:24:51.674Z,0.00
2019-02-07T00:25:51.671Z,0.00
2019-02-07T00:26:51.657Z,0.00
2019-02-07T00:27:51.661Z,0.00
2019-02-07T00:28:51.631Z,0.00
2019-02-07T00:29:51.626Z,0.00
2019-02-07T00:30:51.630Z,0.00
2019-02-07T00:31:51.603Z,0.00
2019-02-07T00:32:51.610Z,0.00
2019-02-07T00:33:51.576Z,0.00
2019-02-07T00:34:51.567Z,0.00
2019-02-07T00:35:51.562Z,0.00
2019-02-07T00:36:51.551Z,0.00
2019-02-07T00:37:51.550Z,0.00
2019-02-07T00:38:51.532Z,0.00
2019-02-07T00:39:51.513Z,0.00
2019-02-07T00:40:51.500Z,0.00
2019-02-07T00:41:51.519Z,0.00
2019-02-07T00:42:51.504Z,0.00
2019-02-07T00:43:51.469Z,0.00
2019-02-07T00:44:53.071Z,0.00
2019-02-07T00:45:51.455Z,0.00
2019-02-07T00:46:51.441Z,0.00
2019-02-07T00:47:51.447Z,0.00
2019-02-07T00:48:51.438Z,0.00
2019-02-07T00:49:51.401Z,0.00
2019-02-07T00:50:51.394Z,0.00
2019-02-07T00:51:51.382Z,0.00
2019-02-07T00:52:51.369Z,0.00
2019-02-07T00:53:51.383Z,0.00
2019-02-07T00:54:51.353Z,0.00
2019-02-07T00:55:51.341Z,0.00
2019-02-07T00:56:51.332Z,0.00
2019-02-07T00:57:51.315Z,0.00
2019-02-07T00:58:51.326Z,0.00
2019-02-07T00:59:51.298Z,0.00
2019-02-07T01:00:51.290Z,0.00
2019-02-07T01:01:51.273Z,0.00
2019-02-07T01:02:51.267Z,0.00
2019-02-07T01:03:51.268Z,0.00
2019-02-07T01:04:51.238Z,0.00
2019-02-07T01:05:51.246Z,0.00
2019-02-07T01:06:51.223Z,0.00
2019-02-07T01:07:51.211Z,0.00
2019-02-07T01:08:51.220Z,0.00
2019-02-07T01:09:51.185Z,0.00
2019-02-07T01:10:51.176Z,0.00
2019-02-07T01:11:51.166Z,0.00
2019-02-07T01:12:51.151Z,0.00
2019-02-07T01:13:51.166Z,0.00
2019-02-07T01:15:01.460Z,0.00
2019-02-07T01:15:52.120Z,0.00
2019-02-07T01:16:51.109Z,0.00
2019-02-07T01:17:51.104Z,0.00
2019-02-07T01:18:51.109Z,0.00
2019-02-07T01:19:51.083Z,0.00
2019-02-07T01:20:51.071Z,0.00
2019-02-07T01:21:51.054Z,0.00
2019-02-07T01:22:51.045Z,0.00
2019-02-07T01:23:51.053Z,0.00
2019-02-07T01:24:51.022Z,0.00
2019-02-07T01:25:51.016Z,0.00
2019-02-07T01:26:51.004Z,0.00
2019-02-07T01:27:50.993Z,0.00
2019-02-07T01:28:51.001Z,0.00
2019-02-07T01:29:50.967Z,0.00
2019-02-07T01:30:50.959Z,0.00
2019-02-07T01:31:50.951Z,0.00
2019-02-07T01:32:50.942Z,0.00
2019-02-07T01:33:50.954Z,0.00
2019-02-07T01:34:50.914Z,0.00
2019-02-07T01:35:50.903Z,0.00
2019-02-07T01:36:50.892Z,0.00
2019-02-07T01:37:50.886Z,0.00
2019-02-07T01:38:50.876Z,0.00
2019-02-07T01:39:50.881Z,0.00
2019-02-07T01:40:50.853Z,0.00
2019-02-07T01:41:50.836Z,0.00
2019-02-07T01:42:50.827Z,0.00
2019-02-07T01:43:50.825Z,0.00
2019-02-07T01:44:50.821Z,0.00
2019-02-07T01:45:50.799Z,0.00
2019-02-07T01:46:50.786Z,0.00
2019-02-07T01:47:50.833Z,0.00
2019-02-07T01:48:50.760Z,0.00
2019-02-07T01:49:50.790Z,0.00
2019-02-07T01:50:50.743Z,0.00
2019-02-07T01:51:50.732Z,0.00
2019-02-07T01:52:50.723Z,0.00
2019-02-07T01:53:50.711Z,0.00
2019-02-07T01:54:50.718Z,0.00
2019-02-07T01:55:50.687Z,0.00
2019-02-07T01:56:50.675Z,0.00
2019-02-07T01:57:50.672Z,0.00
2019-02-07T01:58:50.657Z,0.00
2019-02-07T01:59:50.664Z,0.00
2019-02-07T02:00:50.639Z,0.00
2019-02-07T02:01:50.625Z,0.00
2019-02-07T02:02:50.615Z,0.00
2019-02-07T02:03:50.604Z,0.00
2019-02-07T02:04:50.617Z,0.00
2019-02-07T02:05:50.578Z,0.00
2019-02-07T02:06:50.569Z,0.00
2019-02-07T02:07:50.558Z,0.00
2019-02-07T02:08:50.546Z,0.00
2019-02-07T02:09:50.558Z,0.00
2019-02-07T02:10:50.547Z,0.00
2019-02-07T02:11:50.517Z,0.00
2019-02-07T02:12:50.510Z,0.00
2019-02-07T02:13:50.491Z,0.00
2019-02-07T02:14:50.483Z,0.00
2019-02-07T02:15:50.489Z,0.00
2019-02-07T02:16:50.458Z,0.00
2019-02-07T02:17:50.455Z,0.00
2019-02-07T02:18:50.442Z,0.00
2019-02-07T02:19:50.446Z,0.00
2019-02-07T02:20:50.416Z,0.00
2019-02-07T02:21:50.412Z,0.00
2019-02-07T02:22:50.398Z,0.00
2019-02-07T02:23:50.386Z,0.00
2019-02-07T02:24:50.396Z,0.00
2019-02-07T02:25:50.379Z,0.00
2019-02-07T02:26:50.351Z,0.00
2019-02-07T02:27:50.341Z,0.00
2019-02-07T02:28:50.330Z,0.00
2019-02-07T02:29:50.324Z,0.00
2019-02-07T02:30:50.327Z,0.00
2019-02-07T02:31:50.299Z,0.00
2019-02-07T02:32:50.291Z,0.00
2019-02-07T02:33:50.280Z,0.00
2019-02-07T02:34:50.286Z,0.00
2019-02-07T02:35:50.274Z,0.00
2019-02-07T02:36:50.248Z,0.00
2019-02-07T02:37:50.232Z,0.00
2019-02-07T02:38:50.225Z,0.00
2019-02-07T02:39:50.232Z,0.00
2019-02-07T02:40:50.197Z,0.00
2019-02-07T02:41:50.192Z,0.00
2019-02-07T02:42:50.187Z,0.00
2019-02-07T02:43:50.186Z,0.00
2019-02-07T02:44:50.177Z,0.00
2019-02-07T02:45:50.142Z,0.00
2019-02-07T02:46:50.140Z,0.00
2019-02-07T02:47:50.132Z,0.00
2019-02-07T02:48:50.131Z,0.00
2019-02-07T02:49:50.101Z,0.00
2019-02-07T02:50:50.088Z,0.00
2019-02-07T02:51:50.102Z,0.00
2019-02-07T02:52:50.083Z,0.00
2019-02-07T02:53:50.058Z,0.00
2019-02-07T02:54:50.061Z,0.00
2019-02-07T02:55:50.033Z,0.00
2019-02-07T02:56:50.042Z,0.00
2019-02-07T02:57:50.018Z,0.00
2019-02-07T02:58:50.013Z,0.00
2019-02-07T02:59:50.021Z,0.00
2019-02-07T03:00:49.987Z,0.00
2019-02-07T03:01:49.971Z,0.00
2019-02-07T03:02:49.959Z,0.00
2019-02-07T03:03:49.946Z,0.00
2019-02-07T03:04:49.938Z,0.00
2019-02-07T03:05:49.947Z,0.00
2019-02-07T03:06:49.920Z,0.00
2019-02-07T03:07:49.912Z,0.00
2019-02-07T03:08:49.894Z,0.00
2019-02-07T03:09:49.887Z,0.00
2019-02-07T03:10:49.895Z,0.00
2019-02-07T03:11:49.865Z,0.00
2019-02-07T03:12:49.872Z,0.00
2019-02-07T03:13:49.839Z,0.00
2019-02-07T03:14:49.828Z,0.00
2019-02-07T03:15:50.206Z,0.00
2019-02-07T03:16:49.807Z,0.00
2019-02-07T03:17:49.822Z,0.00
2019-02-07T03:18:49.790Z,0.00
2019-02-07T03:19:49.783Z,0.00
2019-02-07T03:20:49.765Z,0.00
2019-02-07T03:21:49.751Z,0.00
2019-02-07T03:22:49.756Z,0.00
2019-02-07T03:23:49.735Z,0.00
2019-02-07T03:24:49.723Z,0.00
2019-02-07T03:25:49.726Z,0.00
2019-02-07T03:26:49.694Z,0.00
2019-02-07T03:27:49.684Z,0.00
2019-02-07T03:28:49.693Z,0.00
2019-02-07T03:29:49.666Z,0.00
2019-02-07T03:30:49.660Z,0.00
2019-02-07T03:31:49.655Z,0.00
2019-02-07T03:32:49.649Z,0.00
2019-02-07T03:33:49.620Z,0.00
2019-02-07T03:34:49.626Z,0.00
2019-02-07T03:35:49.614Z,0.00
2019-02-07T03:36:49.587Z,0.00
2019-02-07T03:37:49.578Z,0.00
2019-02-07T03:38:49.590Z,0.00
2019-02-07T03:39:49.557Z,0.00
2019-02-07T03:40:49.561Z,0.00
2019-02-07T03:41:49.534Z,0.00
2019-02-07T03:42:49.526Z,0.00
2019-02-07T03:43:49.514Z,0.00
2019-02-07T03:44:49.523Z,0.00
2019-02-07T03:46:02.093Z,0.00
2019-02-07T03:46:50.495Z,0.00
2019-02-07T03:47:49.465Z,0.00
2019-02-07T03:48:49.462Z,0.00
2019-02-07T03:49:49.453Z,0.00
2019-02-07T03:50:49.458Z,0.00
2019-02-07T03:51:49.427Z,0.00
2019-02-07T03:52:49.418Z,0.00
2019-02-07T03:53:49.400Z,0.00
2019-02-07T03:54:49.388Z,0.00
2019-02-07T03:55:49.401Z,0.00
2019-02-07T03:56:49.371Z,0.00
2019-02-07T03:57:49.359Z,0.00
2019-02-07T03:58:49.345Z,0.00
2019-02-07T03:59:49.333Z,0.00
2019-02-07T04:00:49.342Z,0.00
2019-02-07T04:01:49.322Z,0.00
2019-02-07T04:02:49.311Z,0.00
2019-02-07T04:03:49.304Z,0.00
2019-02-07T04:04:49.283Z,0.00
2019-02-07T04:05:49.291Z,0.00
2019-02-07T04:06:49.257Z,0.00
2019-02-07T04:07:49.265Z,0.00
2019-02-07T04:08:49.240Z,0.00
2019-02-07T04:09:49.231Z,0.00
2019-02-07T04:10:49.223Z,0.00
2019-02-07T04:11:49.205Z,0.00
2019-02-07T04:12:49.225Z,0.00
2019-02-07T04:13:49.188Z,0.00
2019-02-07T04:14:49.190Z,0.00
2019-02-07T04:15:49.167Z,0.00
2019-02-07T04:16:49.153Z,0.00
2019-02-07T04:17:49.161Z,0.00
2019-02-07T04:18:49.128Z,0.00
2019-02-07T04:19:49.121Z,0.00
2019-02-07T04:20:49.126Z,0.00
2019-02-07T04:21:49.100Z,0.00
2019-02-07T04:22:49.100Z,0.00
2019-02-07T04:23:49.103Z,0.00
2019-02-07T04:24:49.068Z,0.00
2019-02-07T04:25:49.056Z,0.00
2019-02-07T04:26:49.042Z,0.00
2019-02-07T04:27:49.056Z,0.00
2019-02-07T04:28:49.029Z,0.00
2019-02-07T04:29:49.013Z,0.00
2019-02-07T04:30:49.018Z,0.00
2019-02-07T04:31:48.998Z,0.00
2019-02-07T04:32:48.982Z,0.00
2019-02-07T04:33:48.971Z,0.00
2019-02-07T04:34:48.967Z,0.00
2019-02-07T04:35:48.972Z,0.00
2019-02-07T04:36:48.941Z,0.00
2019-02-07T04:37:48.952Z,0.00
2019-02-07T04:38:48.914Z,0.00
2019-02-07T04:39:48.907Z,0.00
2019-02-07T04:40:48.895Z,0.00
2019-02-07T04:41:48.887Z,0.00
2019-02-07T04:42:48.882Z,0.00
2019-02-07T04:43:48.891Z,0.00
2019-02-07T04:44:48.851Z,0.00
2019-02-07T04:45:48.843Z,0.00
2019-02-07T04:46:48.836Z,0.00
2019-02-07T04:47:48.826Z,0.00
2019-02-07T04:48:48.813Z,0.00
2019-02-07T04:49:48.827Z,0.00
2019-02-07T04:50:48.786Z,0.00
2019-02-07T04:51:48.791Z,0.00
2019-02-07T04:52:48.768Z,0.00
2019-02-07T04:53:48.765Z,0.00
2019-02-07T04:54:48.747Z,0.00
2019-02-07T04:55:48.765Z,0.00
2019-02-07T04:56:48.730Z,0.00
2019-02-07T04:57:48.710Z,0.00
2019-02-07T04:58:48.702Z,0.00
2019-02-07T04:59:48.696Z,0.00
2019-02-07T05:00:48.704Z,0.00
2019-02-07T05:01:48.685Z,0.00
2019-02-07T05:02:48.659Z,0.00
2019-02-07T05:03:48.648Z,0.00
2019-02-07T05:04:48.633Z,0.00
2019-02-07T05:05:48.631Z,0.00
2019-02-07T05:06:48.637Z,0.00
2019-02-07T05:07:48.610Z,0.00
2019-02-07T05:08:48.598Z,0.00
2019-02-07T05:09:48.585Z,0.00
2019-02-07T05:10:48.573Z,0.00
2019-02-07T05:11:48.580Z,0.00
2019-02-07T05:12:48.556Z,0.00
2019-02-07T05:13:48.550Z,0.00
2019-02-07T05:14:48.534Z,0.00
2019-02-07T05:15:48.518Z,0.00
2019-02-07T05:16:48.524Z,0.00
2019-02-07T05:17:48.524Z,0.00
2019-02-07T05:18:48.489Z,0.00
2019-02-07T05:19:48.481Z,0.00
2019-02-07T05:20:48.525Z,0.00
2019-02-07T05:21:48.477Z,0.00
2019-02-07T05:22:48.447Z,0.00
2019-02-07T05:23:48.432Z,0.00
2019-02-07T05:24:48.421Z,0.00
2019-02-07T05:25:48.418Z,0.00
2019-02-07T05:26:48.403Z,0.00
2019-02-07T05:27:48.409Z,0.00
2019-02-07T05:28:48.384Z,0.00
2019-02-07T05:29:48.375Z,0.00
2019-02-07T05:30:48.359Z,0.00
2019-02-07T05:31:48.368Z,0.00
2019-02-07T05:32:48.341Z,0.00
2019-02-07T05:33:48.324Z,0.00
2019-02-07T05:34:48.314Z,0.00
2019-02-07T05:35:48.303Z,0.00
2019-02-07T05:36:48.308Z,0.00
2019-02-07T05:37:49.740Z,0.00
2019-02-07T05:38:48.277Z,0.00
2019-02-07T05:39:48.287Z,0.00
2019-02-07T05:40:48.254Z,0.00
2019-02-07T05:41:48.244Z,0.00
2019-02-07T05:42:48.228Z,0.00
2019-02-07T05:43:48.389Z,0.00
2019-02-07T05:44:48.204Z,0.00
2019-02-07T05:45:48.219Z,0.00
2019-02-07T05:46:51.086Z,0.00
2019-02-07T05:47:48.175Z,0.00
2019-02-07T05:48:48.162Z,0.00
2019-02-07T05:49:48.158Z,0.00
2019-02-07T05:50:48.164Z,0.00
2019-02-07T05:51:48.137Z,0.00
2019-02-07T05:52:48.127Z,0.00
2019-02-07T05:53:48.112Z,0.00
2019-02-07T05:54:48.109Z,0.00
2019-02-07T05:55:48.106Z,0.00
2019-02-07T05:56:48.098Z,0.00
2019-02-07T05:57:48.073Z,0.00
2019-02-07T05:58:48.137Z,0.00
2019-02-07T05:59:48.050Z,0.00
2019-02-07T06:00:48.044Z,0.00
2019-02-07T06:01:48.025Z,0.00
2019-02-07T06:02:48.038Z,0.00
2019-02-07T06:03:48.005Z,0.00
2019-02-07T06:04:47.998Z,0.00
2019-02-07T06:05:47.980Z,0.00
2019-02-07T06:06:47.975Z,0.00
2019-02-07T06:07:47.959Z,0.00
2019-02-07T06:08:47.966Z,0.00
2019-02-07T06:09:49.053Z,0.00
2019-02-07T06:10:47.968Z,0.00
2019-02-07T06:11:47.919Z,0.00
2019-02-07T06:12:47.910Z,0.00
2019-02-07T06:13:47.911Z,0.00
2019-02-07T06:14:47.885Z,0.00
2019-02-07T06:15:47.876Z,0.00
2019-02-07T06:16:47.861Z,0.00
2019-02-07T06:17:47.879Z,0.00
2019-02-07T06:18:47.845Z,0.00
2019-02-07T06:19:47.830Z,0.00
2019-02-07T06:20:47.818Z,0.00
2019-02-07T06:21:48.314Z,0.00
2019-02-07T06:22:47.810Z,0.00
2019-02-07T06:23:47.810Z,0.00
2019-02-07T06:24:47.784Z,0.00
2019-02-07T06:25:47.766Z,0.00
2019-02-07T06:26:47.756Z,0.00
2019-02-07T06:27:47.753Z,4.00
2019-02-07T06:28:47.753Z,4.00
2019-02-07T06:29:47.732Z,4.00
2019-02-07T06:30:47.724Z,0.00
2019-02-07T06:31:47.710Z,4.00
2019-02-07T06:32:47.696Z,4.00
2019-02-07T06:33:47.705Z,8.00
2019-02-07T06:34:47.671Z,8.00
2019-02-07T06:35:47.663Z,8.00
2019-02-07T06:36:47.655Z,8.00
2019-02-07T06:37:47.645Z,8.00
2019-02-07T06:38:47.628Z,16.00
2019-02-07T06:39:47.636Z,16.00
2019-02-07T06:40:47.604Z,16.00
2019-02-07T06:41:47.606Z,20.00
2019-02-07T06:42:47.587Z,28.00
2019-02-07T06:43:47.601Z,28.00
2019-02-07T06:44:47.573Z,36.00
2019-02-07T06:45:47.552Z,36.00
2019-02-07T06:46:47.541Z,32.00
2019-02-07T06:47:47.532Z,40.00
2019-02-07T06:48:47.536Z,48.00
2019-02-07T06:49:47.515Z,52.00
2019-02-07T06:50:47.518Z,64.00
2019-02-07T06:51:47.488Z,80.00
2019-02-07T06:52:47.476Z,96.00
2019-02-07T06:53:47.472Z,112.00
2019-02-07T06:54:47.465Z,112.00
2019-02-07T06:55:47.469Z,100.00
2019-02-07T06:56:47.438Z,92.00
2019-02-07T06:57:47.421Z,96.00
2019-02-07T06:58:47.448Z,116.00
2019-02-07T06:59:47.403Z,136.00
2019-02-07T07:00:47.390Z,140.00
2019-02-07T07:01:47.393Z,156.00
2019-02-07T07:02:47.392Z,188.00
2019-02-07T07:03:47.380Z,240.00
2019-02-07T07:04:47.486Z,292.00
2019-02-07T07:05:47.366Z,360.00
2019-02-07T07:06:47.327Z,416.00
2019-02-07T07:07:47.318Z,472.00
2019-02-07T07:08:47.329Z,488.00
2019-02-07T07:09:47.293Z,520.00
2019-02-07T07:10:47.286Z,548.00
2019-02-07T07:11:47.274Z,556.00
2019-02-07T07:12:47.260Z,580.00
2019-02-07T07:13:47.279Z,640.00
2019-02-07T07:14:47.243Z,672.00
2019-02-07T07:15:47.237Z,760.00
2019-02-07T07:16:47.230Z,876.00
2019-02-07T07:17:47.225Z,988.00
2019-02-07T07:18:47.215Z,1032.00
2019-02-07T07:19:47.192Z,1040.00
2019-02-07T07:20:47.173Z,1000.00
2019-02-07T07:21:47.173Z,1024.00
2019-02-07T07:22:47.157Z,1060.00
2019-02-07T07:23:47.174Z,1132.00
2019-02-07T07:24:47.130Z,1228.00
2019-02-07T07:25:47.128Z,1300.00
2019-02-07T07:26:47.115Z,1320.00
2019-02-07T07:27:47.103Z,1292.00
2019-02-07T07:28:47.114Z,1228.00
2019-02-07T07:29:47.079Z,1196.00
2019-02-07T07:30:47.074Z,1236.00
2019-02-07T07:31:47.058Z,1268.00
2019-02-07T07:32:47.047Z,1304.00
2019-02-07T07:33:47.067Z,1316.00
2019-02-07T07:34:47.033Z,1372.00
2019-02-07T07:35:47.016Z,1448.00
2019-02-07T07:36:47.011Z,1556.00
2019-02-07T07:37:46.993Z,1672.00
2019-02-07T07:38:47.002Z,1828.00
2019-02-07T07:39:46.973Z,1940.00
2019-02-07T07:40:46.967Z,1928.00
2019-02-07T07:41:46.947Z,1804.00
2019-02-07T07:42:46.939Z,1548.00
2019-02-07T07:43:46.934Z,1572.00
2019-02-07T07:44:47.006Z,2124.00
2019-02-07T07:45:46.909Z,2684.00
2019-02-07T07:46:46.897Z,2876.00
2019-02-07T07:47:46.885Z,2960.00
2019-02-07T07:48:46.879Z,3088.00
2019-02-07T07:49:46.860Z,3280.00
2019-02-07T07:50:46.879Z,3264.00
2019-02-07T07:51:46.842Z,3228.00
2019-02-07T07:52:46.826Z,3280.00
2019-02-07T07:53:46.827Z,3412.00
2019-02-07T07:54:46.809Z,3508.00
2019-02-07T07:55:46.796Z,3604.00
2019-02-07T07:56:46.804Z,3568.00
2019-02-07T07:57:46.791Z,3516.00
2019-02-07T07:58:46.766Z,3968.00
2019-02-07T07:59:46.755Z,4244.00
2019-02-07T08:00:46.747Z,4360.00
2019-02-07T08:01:46.747Z,3924.00
2019-02-07T08:02:46.721Z,2640.00
2019-02-07T08:03:46.710Z,2408.00
2019-02-07T08:04:46.726Z,2300.00
2019-02-07T08:05:46.711Z,2700.00
2019-02-07T08:06:46.721Z,3372.00
2019-02-07T08:07:46.679Z,3836.00
2019-02-07T08:08:46.663Z,3880.00
2019-02-07T08:09:46.643Z,3652.00
2019-02-07T08:10:46.636Z,3416.00
2019-02-07T08:11:46.648Z,3444.00
2019-02-07T08:12:46.640Z,3552.00
2019-02-07T08:13:46.600Z,3900.00
2019-02-07T08:14:46.592Z,4388.00
2019-02-07T08:15:46.581Z,4780.00
2019-02-07T08:16:46.568Z,5112.00
2019-02-07T08:17:47.709Z,5248.00
2019-02-07T08:18:46.551Z,5440.00
2019-02-07T08:19:46.539Z,5196.00
2019-02-07T08:20:46.528Z,4696.00
2019-02-07T08:21:46.513Z,4868.00
2019-02-07T08:22:46.522Z,5168.00
2019-02-07T08:23:46.515Z,5492.00
2019-02-07T08:24:46.503Z,5508.00
2019-02-07T08:25:46.482Z,5708.00
2019-02-07T08:26:46.490Z,5688.00
2019-02-07T08:27:46.453Z,5060.00
2019-02-07T08:28:46.438Z,5004.00
2019-02-07T08:29:46.450Z,5460.00
2019-02-07T08:30:46.426Z,6488.00
2019-02-07T08:31:46.409Z,7144.00
2019-02-07T08:32:46.404Z,6912.00
2019-02-07T08:33:46.383Z,5796.00
2019-02-07T08:34:46.390Z,5204.00
2019-02-07T08:35:46.363Z,4284.00
2019-02-07T08:36:46.349Z,4180.00
2019-02-07T08:37:46.349Z,4364.00
2019-02-07T08:38:46.353Z,4652.00
2019-02-07T08:39:46.346Z,4956.00
2019-02-07T08:40:46.318Z,4936.00
2019-02-07T08:41:46.297Z,4972.00
2019-02-07T08:42:46.288Z,4252.00
2019-02-07T08:43:46.284Z,3416.00
2019-02-07T08:44:46.300Z,3124.00
2019-02-07T08:45:46.269Z,3264.00
2019-02-07T08:46:46.247Z,4424.00
2019-02-07T08:47:46.262Z,5284.00
2019-02-07T08:48:46.220Z,5336.00
2019-02-07T08:49:46.234Z,5480.00
2019-02-07T08:50:46.223Z,4392.00
2019-02-07T08:51:46.192Z,4252.00
2019-02-07T08:52:46.183Z,4452.00
2019-02-07T08:53:46.165Z,4376.00
2019-02-07T08:54:46.188Z,3732.00
2019-02-07T08:55:46.147Z,4380.00
2019-02-07T08:56:46.134Z,3880.00
2019-02-07T08:57:46.133Z,3296.00
2019-02-07T08:58:46.117Z,2980.00
2019-02-07T08:59:46.103Z,3216.00
2019-02-07T09:00:46.109Z,2840.00
2019-02-07T09:01:46.088Z,3272.00
2019-02-07T09:02:51.869Z,3904.00
2019-02-07T09:03:47.062Z,3956.00
2019-02-07T09:04:46.053Z,2388.00
2019-02-07T09:05:46.058Z,1964.00
2019-02-07T09:06:46.026Z,2260.00
2019-02-07T09:07:46.020Z,2668.00
2019-02-07T09:08:46.045Z,2556.00
2019-02-07T09:09:46.018Z,3012.00
2019-02-07T09:10:46.041Z,2708.00
2019-02-07T09:11:45.983Z,2484.00
2019-02-07T09:12:45.967Z,2896.00
2019-02-07T09:13:45.952Z,4260.00
2019-02-07T09:14:45.956Z,5268.00
2019-02-07T09:15:45.934Z,4364.00
2019-02-07T09:16:45.921Z,3628.00
2019-02-07T09:17:45.907Z,3960.00
2019-02-07T09:18:45.988Z,4132.00
2019-02-07T09:19:45.904Z,5932.00
2019-02-07T09:20:45.888Z,5336.00
2019-02-07T09:21:45.873Z,4844.00
2019-02-07T09:22:45.859Z,4764.00
2019-02-07T09:23:45.848Z,7080.00
2019-02-07T09:24:45.853Z,8612.00
2019-02-07T09:25:45.822Z,8276.00
2019-02-07T09:26:45.808Z,5740.00
2019-02-07T09:27:45.797Z,5008.00
2019-02-07T09:28:45.794Z,7628.00
2019-02-07T09:29:45.802Z,7704.00
2019-02-07T09:30:45.789Z,7420.00
2019-02-07T09:31:45.755Z,7156.00
2019-02-07T09:32:45.745Z,6652.00
2019-02-07T09:33:45.736Z,6248.00
2019-02-07T09:34:45.729Z,5972.00
2019-02-07T09:35:45.742Z,5852.00
2019-02-07T09:36:45.725Z,5784.00
2019-02-07T09:37:45.691Z,5868.00
2019-02-07T09:38:45.724Z,5956.00
2019-02-07T09:39:45.665Z,6448.00
2019-02-07T09:40:45.657Z,6700.00
2019-02-07T09:41:45.649Z,7520.00
2019-02-07T09:42:45.661Z,8452.00
2019-02-07T09:43:45.652Z,8984.00
2019-02-07T09:44:45.621Z,8700.00
2019-02-07T09:45:45.661Z,9128.00
2019-02-07T09:46:45.592Z,10180.00
2019-02-07T09:47:45.590Z,10852.00
2019-02-07T09:48:45.575Z,10368.00
2019-02-07T09:49:45.586Z,9424.00
2019-02-07T09:50:45.566Z,8816.00
2019-02-07T09:51:45.538Z,8748.00
2019-02-07T09:52:45.528Z,8936.00
2019-02-07T09:53:45.519Z,8440.00
2019-02-07T09:54:45.539Z,7548.00
2019-02-07T09:55:45.499Z,6404.00
2019-02-07T09:56:45.496Z,5904.00
2019-02-07T09:57:45.496Z,6144.00
2019-02-07T09:58:45.461Z,5936.00
2019-02-07T09:59:45.456Z,5584.00
2019-02-07T10:00:45.467Z,4744.00
2019-02-07T10:01:45.433Z,4468.00
2019-02-07T10:02:45.422Z,4632.00
2019-02-07T10:03:45.519Z,4936.00
2019-02-07T10:04:45.396Z,5336.00
2019-02-07T10:05:45.389Z,5684.00
2019-02-07T10:06:45.401Z,6160.00
2019-02-07T10:07:45.370Z,6564.00
2019-02-07T10:08:45.359Z,7144.00
2019-02-07T10:09:45.348Z,7560.00
2019-02-07T10:10:45.394Z,8164.00
2019-02-07T10:11:45.357Z,8348.00
2019-02-07T10:12:45.310Z,8340.00
2019-02-07T10:13:45.301Z,8120.00
2019-02-07T10:14:45.292Z,7376.00
2019-02-07T10:15:45.283Z,6864.00
2019-02-07T10:16:45.334Z,6792.00
2019-02-07T10:17:45.254Z,7416.00
2019-02-07T10:18:45.246Z,7756.00
2019-02-07T10:19:45.236Z,8972.00
2019-02-07T10:20:45.230Z,7396.00
2019-02-07T10:21:45.230Z,6596.00
2019-02-07T10:22:45.215Z,7444.00
2019-02-07T10:23:45.214Z,6588.00
2019-02-07T10:24:45.179Z,6312.00
2019-02-07T10:25:45.169Z,5672.00
2019-02-07T10:26:45.179Z,5708.00
2019-02-07T10:27:45.151Z,6128.00
2019-02-07T10:28:45.138Z,5588.00
2019-02-07T10:29:45.151Z,5556.00
2019-02-07T10:30:45.116Z,5668.00
2019-02-07T10:31:45.133Z,6708.00
2019-02-07T10:32:45.092Z,6352.00
2019-02-07T10:33:45.082Z,8376.00
2019-02-07T10:34:45.074Z,8944.00
2019-02-07T10:35:45.087Z,7648.00
2019-02-07T10:36:45.065Z,6656.00
2019-02-07T10:37:45.056Z,5924.00
2019-02-07T10:38:45.033Z,7460.00
2019-02-07T10:39:45.019Z,8344.00
2019-02-07T10:40:45.010Z,8256.00
2019-02-07T10:41:44.992Z,10916.00
2019-02-07T10:42:45.005Z,10228.00
2019-02-07T10:43:44.969Z,10536.00
2019-02-07T10:44:44.966Z,10136.00
2019-02-07T10:45:44.951Z,8616.00
2019-02-07T10:46:44.972Z,9956.00
2019-02-07T10:47:44.931Z,11992.00
2019-02-07T10:48:44.935Z,13924.00
2019-02-07T10:49:44.913Z,12424.00
2019-02-07T10:50:44.893Z,11228.00
2019-02-07T10:51:44.888Z,9508.00
2019-02-07T10:52:44.880Z,8492.00
2019-02-07T10:53:44.910Z,9888.00
2019-02-07T10:54:44.850Z,11856.00
2019-02-07T10:55:44.836Z,12136.00
2019-02-07T10:56:44.827Z,9908.00
2019-02-07T10:57:44.820Z,9436.00
2019-02-07T10:58:44.811Z,10032.00
2019-02-07T10:59:44.824Z,12280.00
2019-02-07T11:00:44.787Z,11372.00
2019-02-07T11:01:44.771Z,13008.00
2019-02-07T11:02:44.760Z,11188.00
2019-02-07T11:03:44.750Z,11336.00
2019-02-07T11:04:44.740Z,12936.00
2019-02-07T11:05:44.753Z,15088.00
2019-02-07T11:06:44.726Z,14312.00
2019-02-07T11:07:44.705Z,13620.00
2019-02-07T11:08:44.701Z,14960.00
2019-02-07T11:09:44.690Z,13972.00
2019-02-07T11:10:44.711Z,12316.00
2019-02-07T11:11:44.672Z,11912.00
2019-02-07T11:12:44.657Z,14060.00
2019-02-07T11:13:44.642Z,13216.00
2019-02-07T11:14:44.657Z,12556.00
2019-02-07T11:15:44.619Z,11084.00
2019-02-07T11:16:44.628Z,11820.00
2019-02-07T11:17:44.619Z,8956.00
2019-02-07T11:18:55.062Z,8476.00
2019-02-07T11:19:45.581Z,9304.00
2019-02-07T11:20:44.573Z,8136.00
2019-02-07T11:21:44.557Z,16832.00
2019-02-07T11:22:44.560Z,24128.00
2019-02-07T11:23:44.556Z,23040.00
2019-02-07T11:24:44.524Z,21024.00
2019-02-07T11:25:44.514Z,11892.00
2019-02-07T11:26:44.499Z,8232.00
2019-02-07T11:27:44.506Z,10176.00
2019-02-07T11:28:44.483Z,18464.00
2019-02-07T11:29:44.490Z,11020.00
2019-02-07T11:30:44.469Z,10972.00
2019-02-07T11:31:44.451Z,12064.00
2019-02-07T11:32:44.438Z,12560.00
2019-02-07T11:33:44.426Z,12216.00
2019-02-07T11:34:46.047Z,12296.00
2019-02-07T11:35:44.401Z,12132.00
2019-02-07T11:36:53.769Z,11936.00
2019-02-07T11:37:45.383Z,13164.00
2019-02-07T11:38:44.374Z,13624.00
2019-02-07T11:39:44.360Z,14080.00
2019-02-07T11:40:44.366Z,15404.00
2019-02-07T11:41:44.341Z,13736.00
2019-02-07T11:42:44.334Z,12764.00
2019-02-07T11:43:44.344Z,12876.00
2019-02-07T11:44:44.307Z,11992.00
2019-02-07T11:45:44.336Z,13772.00
2019-02-07T11:46:44.298Z,12820.00
2019-02-07T11:47:44.286Z,12568.00
2019-02-07T11:48:44.260Z,11300.00
2019-02-07T11:49:44.257Z,11664.00
2019-02-07T11:50:44.245Z,11932.00
2019-02-07T11:51:44.231Z,12392.00
2019-02-07T11:52:44.236Z,12924.00
2019-02-07T11:53:44.208Z,12176.00
2019-02-07T11:54:44.192Z,12400.00
2019-02-07T11:55:44.205Z,11848.00
2019-02-07T11:56:44.176Z,11916.00
2019-02-07T11:57:44.192Z,12064.00
2019-02-07T11:58:44.147Z,12112.00
2019-02-07T11:59:44.139Z,12240.00
2019-02-07T12:00:44.130Z,11916.00
2019-02-07T12:01:44.121Z,11716.00
2019-02-07T12:02:44.111Z,11468.00
2019-02-07T12:03:44.139Z,10656.00
2019-02-07T12:04:44.114Z,10116.00
2019-02-07T12:05:44.073Z,9540.00
2019-02-07T12:06:44.062Z,9372.00
2019-02-07T12:07:44.069Z,9436.00
2019-02-07T12:08:44.060Z,10000.00
2019-02-07T12:09:44.039Z,10084.00
2019-02-07T12:10:44.024Z,10464.00
2019-02-07T12:11:44.031Z,10648.00
2019-02-07T12:12:44.002Z,10676.00
2019-02-07T12:13:43.990Z,11308.00
2019-02-07T12:14:43.980Z,11692.00
2019-02-07T12:15:43.978Z,10164.00
2019-02-07T12:16:43.956Z,9692.00
2019-02-07T12:17:43.967Z,9916.00
2019-02-07T12:18:43.931Z,10180.00
2019-02-07T12:19:43.920Z,10136.00
2019-02-07T12:20:43.911Z,10076.00
2019-02-07T12:21:43.903Z,10400.00
2019-02-07T12:22:43.898Z,10396.00
2019-02-07T12:23:43.901Z,10404.00
2019-02-07T12:24:43.883Z,10100.00
2019-02-07T12:25:43.884Z,10056.00
2019-02-07T12:26:43.843Z,10056.00
2019-02-07T12:27:43.839Z,10116.00
2019-02-07T12:28:43.849Z,10380.00
2019-02-07T12:29:43.813Z,10788.00
2019-02-07T12:30:43.801Z,11160.00
2019-02-07T12:31:43.791Z,11628.00
2019-02-07T12:32:43.789Z,10964.00
2019-02-07T12:33:43.771Z,11040.00
2019-02-07T12:34:43.782Z,10820.00
2019-02-07T12:35:43.753Z,11144.00
2019-02-07T12:36:43.739Z,11448.00
2019-02-07T12:37:43.732Z,11348.00
2019-02-07T12:38:43.712Z,11308.00
2019-02-07T12:39:43.727Z,10712.00
2019-02-07T12:40:43.695Z,10856.00